sensor_id;sensor_type;location;lat;lon;timestamp;temperature;humidity
49132;DHT22;35149;51.196;6.204;2024-03-25T00:00:11;9.20;70.20
49132;DHT22;35149;51.196;6.204;2024-03-25T00:02:41;9.10;70.20
49132;DHT22;35149;51.196;6.204;2024-03-25T00:05:07;9.10;70.30
49132;DHT22;35149;51.196;6.204;2024-03-25T00:07:40;9.00;70.40
49132;DHT22;35149;51.196;6.204;2024-03-25T00:10:06;9.00;70.80
49132;DHT22;35149;51.196;6.204;2024-03-25T00:12:34;9.00;71.00
49132;DHT22;35149;51.196;6.204;2024-03-25T00:15:00;9.00;71.10
49132;DHT22;35149;51.196;6.204;2024-03-25T00:17:26;9.00;71.00
49132;DHT22;35149;51.196;6.204;2024-03-25T00:19:52;9.00;71.00
49132;DHT22;35149;51.196;6.204;2024-03-25T00:22:19;9.00;70.90
49132;DHT22;35149;51.196;6.204;2024-03-25T00:24:46;8.90;70.80
49132;DHT22;35149;51.196;6.204;2024-03-25T00:27:13;8.90;70.70
49132;DHT22;35149;51.196;6.204;2024-03-25T00:29:38;8.90;70.70
49132;DHT22;35149;51.196;6.204;2024-03-25T00:32:05;8.80;70.80
49132;DHT22;35149;51.196;6.204;2024-03-25T00:34:31;8.80;71.00
49132;DHT22;35149;51.196;6.204;2024-03-25T00:36:58;8.80;71.20
49132;DHT22;35149;51.196;6.204;2024-03-25T00:39:24;8.80;71.30
49132;DHT22;35149;51.196;6.204;2024-03-25T00:41:52;8.80;71.50
49132;DHT22;35149;51.196;6.204;2024-03-25T00:44:17;8.70;71.40
49132;DHT22;35149;51.196;6.204;2024-03-25T00:46:43;8.70;71.40
49132;DHT22;35149;51.196;6.204;2024-03-25T00:49:10;8.70;71.40
49132;DHT22;35149;51.196;6.204;2024-03-25T00:51:36;8.70;71.30
49132;DHT22;35149;51.196;6.204;2024-03-25T00:54:02;8.70;71.20
49132;DHT22;35149;51.196;6.204;2024-03-25T00:56:30;8.60;71.20
49132;DHT22;35149;51.196;6.204;2024-03-25T00:58:56;8.60;71.20
49132;DHT22;35149;51.196;6.204;2024-03-25T01:01:24;8.60;71.20
49132;DHT22;35149;51.196;6.204;2024-03-25T01:03:50;8.50;71.20
49132;DHT22;35149;51.196;6.204;2024-03-25T01:06:16;8.50;71.30
49132;DHT22;35149;51.196;6.204;2024-03-25T01:08:42;8.40;71.30
49132;DHT22;35149;51.196;6.204;2024-03-25T01:11:07;8.40;71.30
49132;DHT22;35149;51.196;6.204;2024-03-25T01:13:33;8.40;71.40
49132;DHT22;35149;51.196;6.204;2024-03-25T01:15:59;8.30;71.40
49132;DHT22;35149;51.196;6.204;2024-03-25T01:18:25;8.30;71.50
49132;DHT22;35149;51.196;6.204;2024-03-25T01:20:51;8.30;71.70
49132;DHT22;35149;51.196;6.204;2024-03-25T01:23:17;8.30;71.80
49132;DHT22;35149;51.196;6.204;2024-03-25T01:25:42;8.20;71.90
49132;DHT22;35149;51.196;6.204;2024-03-25T01:28:08;8.20;72.00
49132;DHT22;35149;51.196;6.204;2024-03-25T01:30:34;8.20;72.00
49132;DHT22;35149;51.196;6.204;2024-03-25T01:33:02;8.20;72.10
49132;DHT22;35149;51.196;6.204;2024-03-25T01:35:28;8.20;72.20
49132;DHT22;35149;51.196;6.204;2024-03-25T01:37:54;8.10;72.10
49132;DHT22;35149;51.196;6.204;2024-03-25T01:40:20;8.10;72.20
49132;DHT22;35149;51.196;6.204;2024-03-25T01:42:59;8.10;72.30
49132;DHT22;35149;51.196;6.204;2024-03-25T01:45:25;8.20;72.80
49132;DHT22;35149;51.196;6.204;2024-03-25T01:47:52;8.10;72.50
49132;DHT22;35149;51.196;6.204;2024-03-25T01:50:18;8.10;72.60
49132;DHT22;35149;51.196;6.204;2024-03-25T01:52:44;8.20;72.70
49132;DHT22;35149;51.196;6.204;2024-03-25T01:55:15;8.20;72.80
49132;DHT22;35149;51.196;6.204;2024-03-25T01:57:43;8.20;72.80
49132;DHT22;35149;51.196;6.204;2024-03-25T02:00:11;8.20;72.70
49132;DHT22;35149;51.196;6.204;2024-03-25T02:02:45;8.20;72.70
49132;DHT22;35149;51.196;6.204;2024-03-25T02:05:13;8.30;72.70
49132;DHT22;35149;51.196;6.204;2024-03-25T02:07:40;8.30;72.60
49132;DHT22;35149;51.196;6.204;2024-03-25T02:10:08;8.30;72.60
49132;DHT22;35149;51.196;6.204;2024-03-25T02:12:43;8.30;72.50
49132;DHT22;35149;51.196;6.204;2024-03-25T02:15:10;8.30;72.50
49132;DHT22;35149;51.196;6.204;2024-03-25T02:17:36;8.30;72.40
49132;DHT22;35149;51.196;6.204;2024-03-25T02:20:03;8.30;72.50
49132;DHT22;35149;51.196;6.204;2024-03-25T02:22:32;8.30;72.60
49132;DHT22;35149;51.196;6.204;2024-03-25T02:24:59;8.30;72.60
49132;DHT22;35149;51.196;6.204;2024-03-25T02:27:26;8.30;72.60
49132;DHT22;35149;51.196;6.204;2024-03-25T02:30:02;8.30;72.70
49132;DHT22;35149;51.196;6.204;2024-03-25T02:32:28;8.30;72.80
49132;DHT22;35149;51.196;6.204;2024-03-25T02:34:56;8.30;72.50
49132;DHT22;35149;51.196;6.204;2024-03-25T02:37:22;8.30;72.50
49132;DHT22;35149;51.196;6.204;2024-03-25T02:39:48;8.30;72.40
49132;DHT22;35149;51.196;6.204;2024-03-25T02:42:14;8.30;72.30
49132;DHT22;35149;51.196;6.204;2024-03-25T02:44:40;8.30;72.30
49132;DHT22;35149;51.196;6.204;2024-03-25T02:47:09;8.20;72.30
49132;DHT22;35149;51.196;6.204;2024-03-25T02:49:35;8.20;72.30
49132;DHT22;35149;51.196;6.204;2024-03-25T02:52:01;8.20;72.30
49132;DHT22;35149;51.196;6.204;2024-03-25T02:54:27;8.20;72.30
49132;DHT22;35149;51.196;6.204;2024-03-25T02:56:53;8.20;72.40
49132;DHT22;35149;51.196;6.204;2024-03-25T02:59:18;8.10;72.30
49132;DHT22;35149;51.196;6.204;2024-03-25T03:01:44;8.10;72.20
49132;DHT22;35149;51.196;6.204;2024-03-25T03:04:10;8.10;72.10
49132;DHT22;35149;51.196;6.204;2024-03-25T03:06:36;8.10;72.20
49132;DHT22;35149;51.196;6.204;2024-03-25T03:09:02;8.00;72.20
49132;DHT22;35149;51.196;6.204;2024-03-25T03:11:27;8.00;72.20
49132;DHT22;35149;51.196;6.204;2024-03-25T03:13:53;7.90;72.20
49132;DHT22;35149;51.196;6.204;2024-03-25T03:16:19;7.90;72.20
49132;DHT22;35149;51.196;6.204;2024-03-25T03:18:45;7.90;72.30
49132;DHT22;35149;51.196;6.204;2024-03-25T03:21:11;7.80;72.20
49132;DHT22;35149;51.196;6.204;2024-03-25T03:23:36;7.80;72.30
49132;DHT22;35149;51.196;6.204;2024-03-25T03:26:02;7.70;72.40
49132;DHT22;35149;51.196;6.204;2024-03-25T03:28:28;7.70;72.50
49132;DHT22;35149;51.196;6.204;2024-03-25T03:30:54;7.70;72.50
49132;DHT22;35149;51.196;6.204;2024-03-25T03:33:20;7.60;72.50
49132;DHT22;35149;51.196;6.204;2024-03-25T03:35:46;7.60;72.60
49132;DHT22;35149;51.196;6.204;2024-03-25T03:38:12;7.60;72.70
49132;DHT22;35149;51.196;6.204;2024-03-25T03:40:38;7.60;72.80
49132;DHT22;35149;51.196;6.204;2024-03-25T03:43:04;7.50;72.70
49132;DHT22;35149;51.196;6.204;2024-03-25T03:45:33;7.50;72.70
49132;DHT22;35149;51.196;6.204;2024-03-25T03:48:00;7.50;72.80
49132;DHT22;35149;51.196;6.204;2024-03-25T03:50:26;7.50;72.80
49132;DHT22;35149;51.196;6.204;2024-03-25T03:52:52;7.40;72.80
49132;DHT22;35149;51.196;6.204;2024-03-25T03:55:18;7.40;72.80
49132;DHT22;35149;51.196;6.204;2024-03-25T03:57:45;7.40;72.80
49132;DHT22;35149;51.196;6.204;2024-03-25T04:00:11;7.40;72.90
49132;DHT22;35149;51.196;6.204;2024-03-25T04:02:40;7.30;72.90
49132;DHT22;35149;51.196;6.204;2024-03-25T04:05:06;7.30;72.90
49132;DHT22;35149;51.196;6.204;2024-03-25T04:07:32;7.30;73.10
49132;DHT22;35149;51.196;6.204;2024-03-25T04:09:58;7.30;73.10
49132;DHT22;35149;51.196;6.204;2024-03-25T04:12:25;7.20;73.10
49132;DHT22;35149;51.196;6.204;2024-03-25T04:14:51;7.20;73.20
49132;DHT22;35149;51.196;6.204;2024-03-25T04:17:21;7.20;73.20
49132;DHT22;35149;51.196;6.204;2024-03-25T04:19:49;7.20;73.30
49132;DHT22;35149;51.196;6.204;2024-03-25T04:22:15;7.20;73.40
49132;DHT22;35149;51.196;6.204;2024-03-25T04:24:40;7.20;74.00
49132;DHT22;35149;51.196;6.204;2024-03-25T04:27:06;7.10;73.30
49132;DHT22;35149;51.196;6.204;2024-03-25T04:29:32;7.10;73.40
49132;DHT22;35149;51.196;6.204;2024-03-25T04:31:58;7.10;73.40
49132;DHT22;35149;51.196;6.204;2024-03-25T04:34:24;7.10;73.50
49132;DHT22;35149;51.196;6.204;2024-03-25T04:36:49;7.10;73.50
49132;DHT22;35149;51.196;6.204;2024-03-25T04:39:15;7.10;73.50
49132;DHT22;35149;51.196;6.204;2024-03-25T04:41:41;7.10;73.50
49132;DHT22;35149;51.196;6.204;2024-03-25T04:44:07;7.10;73.60
49132;DHT22;35149;51.196;6.204;2024-03-25T04:46:33;7.10;73.60
49132;DHT22;35149;51.196;6.204;2024-03-25T04:48:59;7.00;73.60
49132;DHT22;35149;51.196;6.204;2024-03-25T04:51:25;7.00;73.80
49132;DHT22;35149;51.196;6.204;2024-03-25T04:53:51;7.00;73.80
49132;DHT22;35149;51.196;6.204;2024-03-25T04:56:17;7.00;73.80
49132;DHT22;35149;51.196;6.204;2024-03-25T04:58:42;7.00;73.80
49132;DHT22;35149;51.196;6.204;2024-03-25T05:01:08;7.00;73.80
49132;DHT22;35149;51.196;6.204;2024-03-25T05:03:34;7.00;73.70
49132;DHT22;35149;51.196;6.204;2024-03-25T05:06:00;6.90;73.60
49132;DHT22;35149;51.196;6.204;2024-03-25T05:08:26;6.90;73.60
49132;DHT22;35149;51.196;6.204;2024-03-25T05:10:52;6.90;73.50
49132;DHT22;35149;51.196;6.204;2024-03-25T05:13:18;6.90;73.40
49132;DHT22;35149;51.196;6.204;2024-03-25T05:15:53;6.90;73.40
49132;DHT22;35149;51.196;6.204;2024-03-25T05:18:19;6.90;73.70
49132;DHT22;35149;51.196;6.204;2024-03-25T05:20:45;6.80;73.50
49132;DHT22;35149;51.196;6.204;2024-03-25T05:23:11;6.80;73.50
49132;DHT22;35149;51.196;6.204;2024-03-25T05:25:37;6.80;73.40
49132;DHT22;35149;51.196;6.204;2024-03-25T05:28:04;6.80;73.30
49132;DHT22;35149;51.196;6.204;2024-03-25T05:30:30;6.80;73.30
49132;DHT22;35149;51.196;6.204;2024-03-25T05:32:56;6.70;73.30
49132;DHT22;35149;51.196;6.204;2024-03-25T05:35:22;6.80;73.30
49132;DHT22;35149;51.196;6.204;2024-03-25T05:37:48;6.70;73.30
49132;DHT22;35149;51.196;6.204;2024-03-25T05:40:14;6.70;73.30
49132;DHT22;35149;51.196;6.204;2024-03-25T05:42:44;6.70;73.30
49132;DHT22;35149;51.196;6.204;2024-03-25T05:45:10;6.70;73.30
49132;DHT22;35149;51.196;6.204;2024-03-25T05:47:36;6.70;73.40
49132;DHT22;35149;51.196;6.204;2024-03-25T05:50:02;6.70;73.40
49132;DHT22;35149;51.196;6.204;2024-03-25T05:52:31;6.70;73.50
49132;DHT22;35149;51.196;6.204;2024-03-25T05:54:57;6.70;73.50
49132;DHT22;35149;51.196;6.204;2024-03-25T05:57:23;6.70;73.60
49132;DHT22;35149;51.196;6.204;2024-03-25T05:59:49;6.60;73.60
49132;DHT22;35149;51.196;6.204;2024-03-25T06:02:15;6.70;73.70
49132;DHT22;35149;51.196;6.204;2024-03-25T06:04:41;6.70;73.90
49132;DHT22;35149;51.196;6.204;2024-03-25T06:07:07;6.70;73.90
49132;DHT22;35149;51.196;6.204;2024-03-25T06:09:32;6.70;74.00
49132;DHT22;35149;51.196;6.204;2024-03-25T06:11:58;6.70;74.10
49132;DHT22;35149;51.196;6.204;2024-03-25T06:14:24;6.70;74.20
49132;DHT22;35149;51.196;6.204;2024-03-25T06:16:50;6.80;74.40
49132;DHT22;35149;51.196;6.204;2024-03-25T06:19:16;6.80;74.50
49132;DHT22;35149;51.196;6.204;2024-03-25T06:21:41;6.80;74.60
49132;DHT22;35149;51.196;6.204;2024-03-25T06:24:08;6.90;74.70
49132;DHT22;35149;51.196;6.204;2024-03-25T06:26:34;6.90;74.80
49132;DHT22;35149;51.196;6.204;2024-03-25T06:29:01;7.00;74.80
49132;DHT22;35149;51.196;6.204;2024-03-25T06:31:28;7.00;74.80
49132;DHT22;35149;51.196;6.204;2024-03-25T06:34:12;7.10;74.80
49132;DHT22;35149;51.196;6.204;2024-03-25T06:36:44;7.10;74.70
49132;DHT22;35149;51.196;6.204;2024-03-25T06:39:10;7.10;74.70
49132;DHT22;35149;51.196;6.204;2024-03-25T06:41:37;7.20;74.70
49132;DHT22;35149;51.196;6.204;2024-03-25T06:44:03;7.20;74.60
49132;DHT22;35149;51.196;6.204;2024-03-25T06:46:28;7.30;74.70
49132;DHT22;35149;51.196;6.204;2024-03-25T06:48:54;7.30;74.60
49132;DHT22;35149;51.196;6.204;2024-03-25T06:51:20;7.40;74.70
49132;DHT22;35149;51.196;6.204;2024-03-25T06:53:46;7.40;74.70
49132;DHT22;35149;51.196;6.204;2024-03-25T06:56:13;7.40;74.70
49132;DHT22;35149;51.196;6.204;2024-03-25T06:58:39;7.50;74.80
49132;DHT22;35149;51.196;6.204;2024-03-25T07:01:09;7.50;74.80
49132;DHT22;35149;51.196;6.204;2024-03-25T07:03:38;7.50;74.70
49132;DHT22;35149;51.196;6.204;2024-03-25T07:06:04;7.50;74.70
49132;DHT22;35149;51.196;6.204;2024-03-25T07:08:31;7.60;74.80
49132;DHT22;35149;51.196;6.204;2024-03-25T07:10:57;7.60;74.80
49132;DHT22;35149;51.196;6.204;2024-03-25T07:13:23;7.70;74.90
49132;DHT22;35149;51.196;6.204;2024-03-25T07:15:51;7.70;75.00
49132;DHT22;35149;51.196;6.204;2024-03-25T07:18:17;7.70;75.10
49132;DHT22;35149;51.196;6.204;2024-03-25T07:20:43;7.80;75.20
49132;DHT22;35149;51.196;6.204;2024-03-25T07:23:10;7.80;75.30
49132;DHT22;35149;51.196;6.204;2024-03-25T07:25:36;7.90;75.50
49132;DHT22;35149;51.196;6.204;2024-03-25T07:28:02;7.90;75.50
49132;DHT22;35149;51.196;6.204;2024-03-25T07:30:28;8.00;75.70
49132;DHT22;35149;51.196;6.204;2024-03-25T07:32:58;8.10;75.80
49132;DHT22;35149;51.196;6.204;2024-03-25T07:35:26;8.10;76.10
49132;DHT22;35149;51.196;6.204;2024-03-25T07:37:52;8.20;76.10
49132;DHT22;35149;51.196;6.204;2024-03-25T07:40:18;8.30;76.30
49132;DHT22;35149;51.196;6.204;2024-03-25T07:42:44;8.30;76.30
49132;DHT22;35149;51.196;6.204;2024-03-25T07:45:10;8.40;76.40
49132;DHT22;35149;51.196;6.204;2024-03-25T07:47:36;8.40;76.50
49132;DHT22;35149;51.196;6.204;2024-03-25T07:50:03;8.50;76.60
49132;DHT22;35149;51.196;6.204;2024-03-25T07:52:29;8.50;76.60
49132;DHT22;35149;51.196;6.204;2024-03-25T07:54:55;8.60;76.60
49132;DHT22;35149;51.196;6.204;2024-03-25T07:57:21;8.70;76.70
49132;DHT22;35149;51.196;6.204;2024-03-25T07:59:47;8.70;76.70
49132;DHT22;35149;51.196;6.204;2024-03-25T08:02:13;8.80;76.70
49132;DHT22;35149;51.196;6.204;2024-03-25T08:04:39;8.80;76.80
49132;DHT22;35149;51.196;6.204;2024-03-25T08:07:05;8.90;76.70
49132;DHT22;35149;51.196;6.204;2024-03-25T08:09:31;9.00;76.70
49132;DHT22;35149;51.196;6.204;2024-03-25T08:11:57;9.00;76.60
49132;DHT22;35149;51.196;6.204;2024-03-25T08:14:23;9.10;76.70
49132;DHT22;35149;51.196;6.204;2024-03-25T08:16:49;9.20;76.60
49132;DHT22;35149;51.196;6.204;2024-03-25T08:19:15;9.20;76.60
49132;DHT22;35149;51.196;6.204;2024-03-25T08:21:41;9.30;76.60
49132;DHT22;35149;51.196;6.204;2024-03-25T08:24:07;9.40;76.60
49132;DHT22;35149;51.196;6.204;2024-03-25T08:26:33;9.50;76.60
49132;DHT22;35149;51.196;6.204;2024-03-25T08:28:59;9.50;76.50
49132;DHT22;35149;51.196;6.204;2024-03-25T08:31:24;9.60;76.40
49132;DHT22;35149;51.196;6.204;2024-03-25T08:33:51;9.70;76.20
49132;DHT22;35149;51.196;6.204;2024-03-25T08:36:17;9.70;75.90
49132;DHT22;35149;51.196;6.204;2024-03-25T08:38:44;9.80;75.80
49132;DHT22;35149;51.196;6.204;2024-03-25T08:41:10;9.90;76.10
49132;DHT22;35149;51.196;6.204;2024-03-25T08:43:36;9.90;75.20
49132;DHT22;35149;51.196;6.204;2024-03-25T08:46:01;10.00;74.90
49132;DHT22;35149;51.196;6.204;2024-03-25T08:48:29;10.00;74.70
49132;DHT22;35149;51.196;6.204;2024-03-25T08:50:55;10.10;74.70
49132;DHT22;35149;51.196;6.204;2024-03-25T08:53:21;10.10;74.60
49132;DHT22;35149;51.196;6.204;2024-03-25T08:55:48;10.10;74.50
49132;DHT22;35149;51.196;6.204;2024-03-25T08:58:14;10.20;74.50
49132;DHT22;35149;51.196;6.204;2024-03-25T09:00:42;10.20;74.40
49132;DHT22;35149;51.196;6.204;2024-03-25T09:03:08;10.30;74.30
49132;DHT22;35149;51.196;6.204;2024-03-25T09:05:34;10.30;74.30
49132;DHT22;35149;51.196;6.204;2024-03-25T09:08:00;10.40;74.60
49132;DHT22;35149;51.196;6.204;2024-03-25T09:10:27;10.50;74.30
49132;DHT22;35149;51.196;6.204;2024-03-25T09:13:12;10.60;74.00
49132;DHT22;35149;51.196;6.204;2024-03-25T09:15:38;10.60;74.30
49132;DHT22;35149;51.196;6.204;2024-03-25T09:18:04;10.70;73.80
49132;DHT22;35149;51.196;6.204;2024-03-25T09:20:30;10.80;73.70
49132;DHT22;35149;51.196;6.204;2024-03-25T09:22:56;10.90;73.50
49132;DHT22;35149;51.196;6.204;2024-03-25T09:25:23;10.90;73.40
49132;DHT22;35149;51.196;6.204;2024-03-25T09:27:49;11.00;73.10
49132;DHT22;35149;51.196;6.204;2024-03-25T09:30:16;11.10;72.60
49132;DHT22;35149;51.196;6.204;2024-03-25T09:32:43;11.20;72.20
49132;DHT22;35149;51.196;6.204;2024-03-25T09:35:09;11.20;71.60
49132;DHT22;35149;51.196;6.204;2024-03-25T09:37:36;11.30;71.60
49132;DHT22;35149;51.196;6.204;2024-03-25T09:40:02;11.40;71.40
49132;DHT22;35149;51.196;6.204;2024-03-25T09:42:46;11.40;71.10
49132;DHT22;35149;51.196;6.204;2024-03-25T09:45:15;11.50;70.10
49132;DHT22;35149;51.196;6.204;2024-03-25T09:47:46;11.50;70.40
49132;DHT22;35149;51.196;6.204;2024-03-25T09:50:16;11.60;70.10
49132;DHT22;35149;51.196;6.204;2024-03-25T09:52:51;11.60;69.70
49132;DHT22;35149;51.196;6.204;2024-03-25T09:55:17;11.70;69.30
49132;DHT22;35149;51.196;6.204;2024-03-25T09:57:44;11.70;69.40
49132;DHT22;35149;51.196;6.204;2024-03-25T10:00:10;11.70;69.20
49132;DHT22;35149;51.196;6.204;2024-03-25T10:02:42;11.80;69.00
49132;DHT22;35149;51.196;6.204;2024-03-25T10:05:08;11.80;68.70
49132;DHT22;35149;51.196;6.204;2024-03-25T10:07:34;11.80;69.00
49132;DHT22;35149;51.196;6.204;2024-03-25T10:10:07;11.90;68.00
49132;DHT22;35149;51.196;6.204;2024-03-25T10:12:36;11.90;67.50
49132;DHT22;35149;51.196;6.204;2024-03-25T10:15:02;11.90;67.10
49132;DHT22;35149;51.196;6.204;2024-03-25T10:17:33;11.90;67.10
49132;DHT22;35149;51.196;6.204;2024-03-25T10:19:59;12.00;66.80
49132;DHT22;35149;51.196;6.204;2024-03-25T10:22:25;12.00;66.60
49132;DHT22;35149;51.196;6.204;2024-03-25T10:24:51;12.00;66.90
49132;DHT22;35149;51.196;6.204;2024-03-25T10:27:18;12.10;66.70
49132;DHT22;35149;51.196;6.204;2024-03-25T10:29:55;12.10;66.30
49132;DHT22;35149;51.196;6.204;2024-03-25T10:32:21;12.20;66.30
49132;DHT22;35149;51.196;6.204;2024-03-25T10:34:50;12.20;65.60
49132;DHT22;35149;51.196;6.204;2024-03-25T10:37:17;12.30;65.80
49132;DHT22;35149;51.196;6.204;2024-03-25T10:39:50;12.40;65.60
49132;DHT22;35149;51.196;6.204;2024-03-25T10:42:20;12.40;65.40
49132;DHT22;35149;51.196;6.204;2024-03-25T10:44:49;12.50;65.60
49132;DHT22;35149;51.196;6.204;2024-03-25T10:47:28;12.60;65.00
49132;DHT22;35149;51.196;6.204;2024-03-25T10:49:58;12.60;64.70
49132;DHT22;35149;51.196;6.204;2024-03-25T10:52:26;12.70;64.60
49132;DHT22;35149;51.196;6.204;2024-03-25T10:54:52;12.80;64.60
49132;DHT22;35149;51.196;6.204;2024-03-25T10:57:20;12.90;64.50
49132;DHT22;35149;51.196;6.204;2024-03-25T10:59:47;12.90;64.40
49132;DHT22;35149;51.196;6.204;2024-03-25T11:02:14;13.00;64.00
49132;DHT22;35149;51.196;6.204;2024-03-25T11:04:42;13.20;64.60
49132;DHT22;35149;51.196;6.204;2024-03-25T11:07:14;13.30;63.70
49132;DHT22;35149;51.196;6.204;2024-03-25T11:09:40;13.50;62.20
49132;DHT22;35149;51.196;6.204;2024-03-25T11:12:10;13.60;62.70
49132;DHT22;35149;51.196;6.204;2024-03-25T11:14:36;13.70;62.00
49132;DHT22;35149;51.196;6.204;2024-03-25T11:17:02;13.90;62.10
49132;DHT22;35149;51.196;6.204;2024-03-25T11:19:29;14.00;61.00
49132;DHT22;35149;51.196;6.204;2024-03-25T11:22:08;14.10;60.20
49132;DHT22;35149;51.196;6.204;2024-03-25T11:24:34;14.20;58.40
49132;DHT22;35149;51.196;6.204;2024-03-25T11:27:02;14.40;59.40
49132;DHT22;35149;51.196;6.204;2024-03-25T11:29:29;14.30;59.00
49132;DHT22;35149;51.196;6.204;2024-03-25T11:31:57;14.40;58.90
49132;DHT22;35149;51.196;6.204;2024-03-25T11:34:24;14.50;58.30
49132;DHT22;35149;51.196;6.204;2024-03-25T11:36:50;14.60;58.60
49132;DHT22;35149;51.196;6.204;2024-03-25T11:39:17;14.70;58.10
49132;DHT22;35149;51.196;6.204;2024-03-25T11:41:43;14.70;57.30
49132;DHT22;35149;51.196;6.204;2024-03-25T11:44:11;14.80;57.30
49132;DHT22;35149;51.196;6.204;2024-03-25T11:46:40;14.90;56.60
49132;DHT22;35149;51.196;6.204;2024-03-25T11:49:08;14.90;55.60
49132;DHT22;35149;51.196;6.204;2024-03-25T11:51:35;14.90;55.70
49132;DHT22;35149;51.196;6.204;2024-03-25T11:54:05;15.00;55.90
49132;DHT22;35149;51.196;6.204;2024-03-25T11:56:31;15.00;54.90
49132;DHT22;35149;51.196;6.204;2024-03-25T11:59:02;15.00;55.20
49132;DHT22;35149;51.196;6.204;2024-03-25T12:01:29;15.20;55.00
49132;DHT22;35149;51.196;6.204;2024-03-25T12:03:55;15.00;55.10
49132;DHT22;35149;51.196;6.204;2024-03-25T12:06:20;15.10;55.10
49132;DHT22;35149;51.196;6.204;2024-03-25T12:08:47;15.00;54.80
49132;DHT22;35149;51.196;6.204;2024-03-25T12:11:31;15.00;54.80
49132;DHT22;35149;51.196;6.204;2024-03-25T12:13:58;15.00;54.50
49132;DHT22;35149;51.196;6.204;2024-03-25T12:16:24;15.00;54.00
49132;DHT22;35149;51.196;6.204;2024-03-25T12:18:50;15.00;53.70
49132;DHT22;35149;51.196;6.204;2024-03-25T12:21:17;15.10;53.70
49132;DHT22;35149;51.196;6.204;2024-03-25T12:23:43;15.10;53.30
49132;DHT22;35149;51.196;6.204;2024-03-25T12:26:09;15.10;52.90
49132;DHT22;35149;51.196;6.204;2024-03-25T12:28:37;15.20;52.90
49132;DHT22;35149;51.196;6.204;2024-03-25T12:31:07;15.20;52.90
49132;DHT22;35149;51.196;6.204;2024-03-25T12:33:43;15.20;52.60
49132;DHT22;35149;51.196;6.204;2024-03-25T12:36:12;15.30;51.90
49132;DHT22;35149;51.196;6.204;2024-03-25T12:38:38;15.30;53.20
49132;DHT22;35149;51.196;6.204;2024-03-25T12:43:35;15.50;52.90
49132;DHT22;35149;51.196;6.204;2024-03-25T12:46:01;15.60;52.80
49132;DHT22;35149;51.196;6.204;2024-03-25T12:48:29;15.70;53.00
49132;DHT22;35149;51.196;6.204;2024-03-25T12:50:55;15.80;52.80
49132;DHT22;35149;51.196;6.204;2024-03-25T12:53:21;15.80;52.20
49132;DHT22;35149;51.196;6.204;2024-03-25T12:55:47;15.80;51.90
49132;DHT22;35149;51.196;6.204;2024-03-25T12:58:14;15.90;52.10
49132;DHT22;35149;51.196;6.204;2024-03-25T13:00:40;15.90;51.60
49132;DHT22;35149;51.196;6.204;2024-03-25T13:03:10;15.90;51.30
49132;DHT22;35149;51.196;6.204;2024-03-25T13:05:37;15.90;50.60
49132;DHT22;35149;51.196;6.204;2024-03-25T13:08:03;16.00;51.10
49132;DHT22;35149;51.196;6.204;2024-03-25T13:10:29;15.90;51.00
49132;DHT22;35149;51.196;6.204;2024-03-25T13:12:56;16.00;51.70
49132;DHT22;35149;51.196;6.204;2024-03-25T13:15:22;16.10;51.50
49132;DHT22;35149;51.196;6.204;2024-03-25T13:17:48;16.10;51.30
49132;DHT22;35149;51.196;6.204;2024-03-25T13:20:14;16.10;50.80
49132;DHT22;35149;51.196;6.204;2024-03-25T13:22:40;16.20;50.60
49132;DHT22;35149;51.196;6.204;2024-03-25T13:25:07;16.30;50.80
49132;DHT22;35149;51.196;6.204;2024-03-25T13:27:33;16.30;50.40
49132;DHT22;35149;51.196;6.204;2024-03-25T13:29:58;16.30;50.40
49132;DHT22;35149;51.196;6.204;2024-03-25T13:32:25;16.40;50.20
49132;DHT22;35149;51.196;6.204;2024-03-25T13:34:51;16.40;49.90
49132;DHT22;35149;51.196;6.204;2024-03-25T13:37:17;16.50;49.40
49132;DHT22;35149;51.196;6.204;2024-03-25T13:39:42;16.60;49.50
49132;DHT22;35149;51.196;6.204;2024-03-25T13:42:08;16.70;49.60
49132;DHT22;35149;51.196;6.204;2024-03-25T13:44:34;16.80;49.60
49132;DHT22;35149;51.196;6.204;2024-03-25T13:47:00;17.00;49.60
49132;DHT22;35149;51.196;6.204;2024-03-25T13:49:26;17.20;50.00
49132;DHT22;35149;51.196;6.204;2024-03-25T13:51:56;17.70;50.20
49132;DHT22;35149;51.196;6.204;2024-03-25T13:54:24;18.60;50.40
49132;DHT22;35149;51.196;6.204;2024-03-25T13:56:51;19.50;54.20
49132;DHT22;35149;51.196;6.204;2024-03-25T13:59:17;20.80;52.90
49132;DHT22;35149;51.196;6.204;2024-03-25T14:01:43;22.10;49.60
49132;DHT22;35149;51.196;6.204;2024-03-25T14:04:08;23.30;47.40
49132;DHT22;35149;51.196;6.204;2024-03-25T14:06:34;24.50;46.00
49132;DHT22;35149;51.196;6.204;2024-03-25T14:09:02;25.70;44.70
49132;DHT22;35149;51.196;6.204;2024-03-25T14:11:31;26.80;42.80
49132;DHT22;35149;51.196;6.204;2024-03-25T14:13:57;28.00;42.30
49132;DHT22;35149;51.196;6.204;2024-03-25T14:16:23;29.00;40.80
49132;DHT22;35149;51.196;6.204;2024-03-25T14:18:49;30.00;39.40
49132;DHT22;35149;51.196;6.204;2024-03-25T14:21:15;30.90;37.90
49132;DHT22;35149;51.196;6.204;2024-03-25T14:23:41;31.70;36.20
49132;DHT22;35149;51.196;6.204;2024-03-25T14:26:12;32.30;34.70
49132;DHT22;35149;51.196;6.204;2024-03-25T14:28:40;32.80;33.20
49132;DHT22;35149;51.196;6.204;2024-03-25T14:31:06;33.30;32.60
49132;DHT22;35149;51.196;6.204;2024-03-25T14:33:32;33.80;32.40
49132;DHT22;35149;51.196;6.204;2024-03-25T14:35:58;34.00;31.00
49132;DHT22;35149;51.196;6.204;2024-03-25T14:38:24;33.90;30.00
49132;DHT22;35149;51.196;6.204;2024-03-25T14:40:50;33.70;29.70
49132;DHT22;35149;51.196;6.204;2024-03-25T14:43:16;33.40;29.70
49132;DHT22;35149;51.196;6.204;2024-03-25T14:45:45;33.40;29.80
49132;DHT22;35149;51.196;6.204;2024-03-25T14:48:11;33.50;29.90
49132;DHT22;35149;51.196;6.204;2024-03-25T14:50:37;33.70;29.80
49132;DHT22;35149;51.196;6.204;2024-03-25T14:53:03;33.90;29.80
49132;DHT22;35149;51.196;6.204;2024-03-25T14:55:30;34.10;29.30
49132;DHT22;35149;51.196;6.204;2024-03-25T14:57:56;34.10;28.80
49132;DHT22;35149;51.196;6.204;2024-03-25T15:00:22;34.20;28.70
49132;DHT22;35149;51.196;6.204;2024-03-25T15:02:50;34.20;28.70
49132;DHT22;35149;51.196;6.204;2024-03-25T15:05:16;34.40;28.80
49132;DHT22;35149;51.196;6.204;2024-03-25T15:07:44;34.70;28.70
49132;DHT22;35149;51.196;6.204;2024-03-25T15:10:10;35.00;28.50
49132;DHT22;35149;51.196;6.204;2024-03-25T15:12:37;35.40;28.40
49132;DHT22;35149;51.196;6.204;2024-03-25T15:15:04;35.70;27.90
49132;DHT22;35149;51.196;6.204;2024-03-25T15:17:33;35.90;27.60
49132;DHT22;35149;51.196;6.204;2024-03-25T15:19:59;36.30;27.50
49132;DHT22;35149;51.196;6.204;2024-03-25T15:22:26;36.60;27.20
49132;DHT22;35149;51.196;6.204;2024-03-25T15:24:52;36.80;27.00
49132;DHT22;35149;51.196;6.204;2024-03-25T15:27:18;37.00;26.90
49132;DHT22;35149;51.196;6.204;2024-03-25T15:29:44;37.10;26.60
49132;DHT22;35149;51.196;6.204;2024-03-25T15:32:10;37.30;26.60
49132;DHT22;35149;51.196;6.204;2024-03-25T15:34:36;37.40;26.30
49132;DHT22;35149;51.196;6.204;2024-03-25T15:37:02;37.50;26.10
49132;DHT22;35149;51.196;6.204;2024-03-25T15:39:28;37.60;25.90